sensor_id;sensor_type;location;lat;lon;timestamp;temperature;humidity
46784;DHT22;32544;52.832;13.816;2022-12-10T00:00:33;23.80;43.30
46784;DHT22;32544;52.832;13.816;2022-12-10T00:01:34;23.80;43.50
46784;DHT22;32544;52.832;13.816;2022-12-10T00:02:35;23.80;43.40
46784;DHT22;32544;52.832;13.816;2022-12-10T00:03:36;23.70;43.40
46784;DHT22;32544;52.832;13.816;2022-12-10T00:04:36;23.70;43.40
46784;DHT22;32544;52.832;13.816;2022-12-10T00:05:37;23.80;43.50
46784;DHT22;32544;52.832;13.816;2022-12-10T00:06:38;23.80;43.50
46784;DHT22;32544;52.832;13.816;2022-12-10T00:07:39;23.80;43.50
46784;DHT22;32544;52.832;13.816;2022-12-10T00:08:39;23.80;43.50
46784;DHT22;32544;52.832;13.816;2022-12-10T00:09:40;23.80;43.60
46784;DHT22;32544;52.832;13.816;2022-12-10T00:10:41;23.80;43.50
46784;DHT22;32544;52.832;13.816;2022-12-10T00:11:41;23.80;43.60
46784;DHT22;32544;52.832;13.816;2022-12-10T00:12:42;23.80;43.60
46784;DHT22;32544;52.832;13.816;2022-12-10T00:13:43;23.80;43.70
46784;DHT22;32544;52.832;13.816;2022-12-10T00:14:44;23.70;43.60
46784;DHT22;32544;52.832;13.816;2022-12-10T00:15:44;23.70;43.60
46784;DHT22;32544;52.832;13.816;2022-12-10T00:16:45;23.70;43.60
46784;DHT22;32544;52.832;13.816;2022-12-10T00:17:46;23.70;43.70
46784;DHT22;32544;52.832;13.816;2022-12-10T00:18:46;23.70;43.70
46784;DHT22;32544;52.832;13.816;2022-12-10T00:19:47;23.70;43.90
46784;DHT22;32544;52.832;13.816;2022-12-10T00:20:48;23.70;43.80
46784;DHT22;32544;52.832;13.816;2022-12-10T00:21:48;23.70;43.70
46784;DHT22;32544;52.832;13.816;2022-12-10T00:22:49;23.70;43.80
46784;DHT22;32544;52.832;13.816;2022-12-10T00:23:50;23.60;43.80
46784;DHT22;32544;52.832;13.816;2022-12-10T00:24:50;23.60;43.80
46784;DHT22;32544;52.832;13.816;2022-12-10T00:25:51;23.60;43.90
46784;DHT22;32544;52.832;13.816;2022-12-10T00:26:52;23.60;44.00
46784;DHT22;32544;52.832;13.816;2022-12-10T00:27:52;23.60;43.90
46784;DHT22;32544;52.832;13.816;2022-12-10T00:28:53;23.60;44.60
46784;DHT22;32544;52.832;13.816;2022-12-10T00:29:54;23.60;44.00
46784;DHT22;32544;52.832;13.816;2022-12-10T00:30:55;23.50;44.10
46784;DHT22;32544;52.832;13.816;2022-12-10T00:31:55;23.50;44.10
46784;DHT22;32544;52.832;13.816;2022-12-10T00:32:56;23.50;44.20
46784;DHT22;32544;52.832;13.816;2022-12-10T00:33:57;23.50;44.20
46784;DHT22;32544;52.832;13.816;2022-12-10T00:34:58;23.50;44.30
46784;DHT22;32544;52.832;13.816;2022-12-10T00:36:03;23.50;44.30
46784;DHT22;32544;52.832;13.816;2022-12-10T00:37:03;23.50;44.40
46784;DHT22;32544;52.832;13.816;2022-12-10T00:38:04;23.40;44.30
46784;DHT22;32544;52.832;13.816;2022-12-10T00:39:05;23.40;44.40
46784;DHT22;32544;52.832;13.816;2022-12-10T00:40:05;23.40;44.40
46784;DHT22;32544;52.832;13.816;2022-12-10T00:41:07;23.40;44.50
46784;DHT22;32544;52.832;13.816;2022-12-10T00:42:08;23.40;44.50
46784;DHT22;32544;52.832;13.816;2022-12-10T00:43:08;23.30;44.50
46784;DHT22;32544;52.832;13.816;2022-12-10T00:44:09;23.30;44.60
46784;DHT22;32544;52.832;13.816;2022-12-10T00:45:10;23.30;44.60
46784;DHT22;32544;52.832;13.816;2022-12-10T00:46:11;23.30;44.70
46784;DHT22;32544;52.832;13.816;2022-12-10T00:47:12;23.20;44.80
46784;DHT22;32544;52.832;13.816;2022-12-10T00:48:12;23.20;44.70
46784;DHT22;32544;52.832;13.816;2022-12-10T00:49:13;23.20;44.70
46784;DHT22;32544;52.832;13.816;2022-12-10T00:50:13;23.20;44.80
46784;DHT22;32544;52.832;13.816;2022-12-10T00:51:15;23.20;44.80
46784;DHT22;32544;52.832;13.816;2022-12-10T00:52:16;23.20;44.80
46784;DHT22;32544;52.832;13.816;2022-12-10T00:53:17;23.20;44.90
46784;DHT22;32544;52.832;13.816;2022-12-10T00:54:17;23.10;44.90
46784;DHT22;32544;52.832;13.816;2022-12-10T00:55:18;23.10;44.90
46784;DHT22;32544;52.832;13.816;2022-12-10T00:56:20;23.10;45.00
46784;DHT22;32544;52.832;13.816;2022-12-10T00:57:21;23.10;45.00
46784;DHT22;32544;52.832;13.816;2022-12-10T00:58:21;23.10;45.10
46784;DHT22;32544;52.832;13.816;2022-12-10T00:59:22;23.10;45.10
46784;DHT22;32544;52.832;13.816;2022-12-10T01:00:22;23.10;45.10
46784;DHT22;32544;52.832;13.816;2022-12-10T01:02:29;23.00;45.10
46784;DHT22;32544;52.832;13.816;2022-12-10T01:03:29;23.00;45.80
46784;DHT22;32544;52.832;13.816;2022-12-10T01:04:30;23.00;45.20
46784;DHT22;32544;52.832;13.816;2022-12-10T01:05:30;23.00;45.30
46784;DHT22;32544;52.832;13.816;2022-12-10T01:06:34;23.00;45.30
46784;DHT22;32544;52.832;13.816;2022-12-10T01:07:35;23.00;45.30
46784;DHT22;32544;52.832;13.816;2022-12-10T01:08:36;23.00;45.30
46784;DHT22;32544;52.832;13.816;2022-12-10T01:09:37;23.00;45.40
46784;DHT22;32544;52.832;13.816;2022-12-10T01:10:37;23.00;45.40
46784;DHT22;32544;52.832;13.816;2022-12-10T01:11:39;23.00;45.40
46784;DHT22;32544;52.832;13.816;2022-12-10T01:12:40;23.00;45.50
46784;DHT22;32544;52.832;13.816;2022-12-10T01:13:41;23.00;45.50
46784;DHT22;32544;52.832;13.816;2022-12-10T01:14:42;23.00;45.50
46784;DHT22;32544;52.832;13.816;2022-12-10T01:15:43;22.90;45.50
46784;DHT22;32544;52.832;13.816;2022-12-10T01:16:44;23.00;45.50
46784;DHT22;32544;52.832;13.816;2022-12-10T01:17:45;22.90;45.50
46784;DHT22;32544;52.832;13.816;2022-12-10T01:18:47;22.90;45.60
46784;DHT22;32544;52.832;13.816;2022-12-10T01:19:48;22.90;45.60
46784;DHT22;32544;52.832;13.816;2022-12-10T01:20:49;22.90;45.60
46784;DHT22;32544;52.832;13.816;2022-12-10T01:21:50;22.90;45.60
46784;DHT22;32544;52.832;13.816;2022-12-10T01:22:51;22.90;45.60
46784;DHT22;32544;52.832;13.816;2022-12-10T01:23:52;22.90;45.70
46784;DHT22;32544;52.832;13.816;2022-12-10T01:24:53;22.90;45.70
46784;DHT22;32544;52.832;13.816;2022-12-10T01:25:53;22.90;45.70
46784;DHT22;32544;52.832;13.816;2022-12-10T01:26:54;22.90;45.70
46784;DHT22;32544;52.832;13.816;2022-12-10T01:27:55;22.90;45.80
46784;DHT22;32544;52.832;13.816;2022-12-10T01:28:58;22.90;45.80
46784;DHT22;32544;52.832;13.816;2022-12-10T01:29:59;22.80;45.80
46784;DHT22;32544;52.832;13.816;2022-12-10T01:31:03;22.80;45.80
46784;DHT22;32544;52.832;13.816;2022-12-10T01:32:05;22.90;45.80
46784;DHT22;32544;52.832;13.816;2022-12-10T01:33:06;22.90;45.90
46784;DHT22;32544;52.832;13.816;2022-12-10T01:34:10;22.80;45.80
46784;DHT22;32544;52.832;13.816;2022-12-10T01:35:11;22.80;45.90
46784;DHT22;32544;52.832;13.816;2022-12-10T01:36:13;22.80;45.90
46784;DHT22;32544;52.832;13.816;2022-12-10T01:37:15;22.80;45.90
46784;DHT22;32544;52.832;13.816;2022-12-10T01:38:16;22.80;45.90
46784;DHT22;32544;52.832;13.816;2022-12-10T01:39:18;22.80;45.90
46784;DHT22;32544;52.832;13.816;2022-12-10T01:40:19;22.80;45.90
46784;DHT22;32544;52.832;13.816;2022-12-10T01:41:24;22.80;45.90
46784;DHT22;32544;52.832;13.816;2022-12-10T01:42:25;22.80;45.90
46784;DHT22;32544;52.832;13.816;2022-12-10T01:43:26;22.80;45.90
46784;DHT22;32544;52.832;13.816;2022-12-10T01:45:27;22.80;46.00
46784;DHT22;32544;52.832;13.816;2022-12-10T01:46:31;22.80;46.00
46784;DHT22;32544;52.832;13.816;2022-12-10T01:47:33;22.80;46.00
46784;DHT22;32544;52.832;13.816;2022-12-10T01:48:34;22.80;46.00
46784;DHT22;32544;52.832;13.816;2022-12-10T01:49:36;22.80;46.00
46784;DHT22;32544;52.832;13.816;2022-12-10T01:50:37;22.80;46.10
46784;DHT22;32544;52.832;13.816;2022-12-10T01:51:40;22.80;46.00
46784;DHT22;32544;52.832;13.816;2022-12-10T01:52:41;22.80;46.10
46784;DHT22;32544;52.832;13.816;2022-12-10T01:53:42;22.80;46.10
46784;DHT22;32544;52.832;13.816;2022-12-10T01:54:43;22.80;46.10
46784;DHT22;32544;52.832;13.816;2022-12-10T01:55:48;22.80;46.10
46784;DHT22;32544;52.832;13.816;2022-12-10T01:57:03;22.80;46.10
46784;DHT22;32544;52.832;13.816;2022-12-10T01:58:05;22.80;46.10
46784;DHT22;32544;52.832;13.816;2022-12-10T01:59:06;22.80;46.10
46784;DHT22;32544;52.832;13.816;2022-12-10T02:00:07;22.80;46.10
46784;DHT22;32544;52.832;13.816;2022-12-10T02:01:22;22.80;46.10
46784;DHT22;32544;52.832;13.816;2022-12-10T02:05:55;22.80;46.80
46784;DHT22;32544;52.832;13.816;2022-12-10T02:09:22;22.80;46.20
46784;DHT22;32544;52.832;13.816;2022-12-10T02:11:46;22.80;46.20
46784;DHT22;32544;52.832;13.816;2022-12-10T02:12:53;22.80;46.20
46784;DHT22;32544;52.832;13.816;2022-12-10T02:14:00;22.80;46.20
46784;DHT22;32544;52.832;13.816;2022-12-10T02:16:12;22.80;46.20
46784;DHT22;32544;52.832;13.816;2022-12-10T02:17:17;22.80;46.20
46784;DHT22;32544;52.832;13.816;2022-12-10T02:19:38;22.80;46.30
46784;DHT22;32544;52.832;13.816;2022-12-10T02:20:41;22.70;46.20
46784;DHT22;32544;52.832;13.816;2022-12-10T02:21:43;22.80;46.40
46784;DHT22;32544;52.832;13.816;2022-12-10T02:22:49;22.80;46.40
46784;DHT22;32544;52.832;13.816;2022-12-10T02:24:00;22.80;46.30
46784;DHT22;32544;52.832;13.816;2022-12-10T02:25:02;22.80;46.30
46784;DHT22;32544;52.832;13.816;2022-12-10T02:26:14;22.70;46.30
46784;DHT22;32544;52.832;13.816;2022-12-10T02:27:23;22.70;46.30
46784;DHT22;32544;52.832;13.816;2022-12-10T02:29:45;22.70;46.40
46784;DHT22;32544;52.832;13.816;2022-12-10T02:30:47;22.70;46.40
46784;DHT22;32544;52.832;13.816;2022-12-10T02:31:50;22.70;47.00
46784;DHT22;32544;52.832;13.816;2022-12-10T02:32:53;22.70;46.40
46784;DHT22;32544;52.832;13.816;2022-12-10T02:33:58;22.80;46.50
46784;DHT22;32544;52.832;13.816;2022-12-10T02:35:00;22.70;46.40
46784;DHT22;32544;52.832;13.816;2022-12-10T02:36:03;22.70;46.40
46784;DHT22;32544;52.832;13.816;2022-12-10T02:37:08;22.80;46.50
46784;DHT22;32544;52.832;13.816;2022-12-10T02:38:12;22.70;46.40
46784;DHT22;32544;52.832;13.816;2022-12-10T02:39:19;22.80;46.50
46784;DHT22;32544;52.832;13.816;2022-12-10T02:40:29;22.70;46.40
46784;DHT22;32544;52.832;13.816;2022-12-10T02:41:33;22.80;46.50
46784;DHT22;32544;52.832;13.816;2022-12-10T02:42:36;22.70;46.50
46784;DHT22;32544;52.832;13.816;2022-12-10T02:43:38;22.70;46.50
46784;DHT22;32544;52.832;13.816;2022-12-10T02:44:38;22.70;46.40
46784;DHT22;32544;52.832;13.816;2022-12-10T02:45:41;22.70;46.50
46784;DHT22;32544;52.832;13.816;2022-12-10T02:46:43;22.70;46.50
46784;DHT22;32544;52.832;13.816;2022-12-10T02:47:45;22.70;46.60
46784;DHT22;32544;52.832;13.816;2022-12-10T02:48:48;22.70;46.60
46784;DHT22;32544;52.832;13.816;2022-12-10T02:49:50;22.70;46.50
46784;DHT22;32544;52.832;13.816;2022-12-10T02:50:52;22.70;46.50
46784;DHT22;32544;52.832;13.816;2022-12-10T02:51:53;22.80;46.60
46784;DHT22;32544;52.832;13.816;2022-12-10T02:52:54;22.70;46.60
46784;DHT22;32544;52.832;13.816;2022-12-10T02:54:02;22.70;46.60
46784;DHT22;32544;52.832;13.816;2022-12-10T02:55:05;22.70;46.60
46784;DHT22;32544;52.832;13.816;2022-12-10T02:58:38;22.70;46.70
46784;DHT22;32544;52.832;13.816;2022-12-10T03:00:53;22.70;46.70
46784;DHT22;32544;52.832;13.816;2022-12-10T03:02:09;22.70;46.70
46784;DHT22;32544;52.832;13.816;2022-12-10T03:07:15;22.70;46.70
46784;DHT22;32544;52.832;13.816;2022-12-10T03:11:23;22.70;46.70
46784;DHT22;32544;52.832;13.816;2022-12-10T03:12:31;22.70;46.80
46784;DHT22;32544;52.832;13.816;2022-12-10T03:13:35;22.80;46.80
46784;DHT22;32544;52.832;13.816;2022-12-10T03:14:37;22.70;46.70
46784;DHT22;32544;52.832;13.816;2022-12-10T03:15:38;22.70;46.70
46784;DHT22;32544;52.832;13.816;2022-12-10T03:16:48;22.70;46.70
46784;DHT22;32544;52.832;13.816;2022-12-10T03:17:49;22.70;46.70
46784;DHT22;32544;52.832;13.816;2022-12-10T03:18:52;22.70;46.70
46784;DHT22;32544;52.832;13.816;2022-12-10T03:19:54;22.70;46.70
46784;DHT22;32544;52.832;13.816;2022-12-10T03:20:56;22.70;46.70
46784;DHT22;32544;52.832;13.816;2022-12-10T03:21:58;22.70;46.70
46784;DHT22;32544;52.832;13.816;2022-12-10T03:23:00;22.70;46.70
46784;DHT22;32544;52.832;13.816;2022-12-10T03:24:02;22.70;46.60
46784;DHT22;32544;52.832;13.816;2022-12-10T03:25:03;22.70;46.70
46784;DHT22;32544;52.832;13.816;2022-12-10T03:26:04;22.70;46.70
46784;DHT22;32544;52.832;13.816;2022-12-10T03:27:06;22.70;46.60
46784;DHT22;32544;52.832;13.816;2022-12-10T03:28:07;22.70;46.60
46784;DHT22;32544;52.832;13.816;2022-12-10T03:29:09;22.70;46.70
46784;DHT22;32544;52.832;13.816;2022-12-10T03:30:11;22.70;46.70
46784;DHT22;32544;52.832;13.816;2022-12-10T03:31:12;22.70;46.60
46784;DHT22;32544;52.832;13.816;2022-12-10T03:32:14;22.70;46.70
46784;DHT22;32544;52.832;13.816;2022-12-10T03:33:15;22.80;46.70
46784;DHT22;32544;52.832;13.816;2022-12-10T03:34:17;22.70;46.70
46784;DHT22;32544;52.832;13.816;2022-12-10T03:35:18;22.70;46.60
46784;DHT22;32544;52.832;13.816;2022-12-10T03:36:20;22.70;46.60
46784;DHT22;32544;52.832;13.816;2022-12-10T03:37:21;22.70;46.60
46784;DHT22;32544;52.832;13.816;2022-12-10T03:38:22;22.70;46.60
46784;DHT22;32544;52.832;13.816;2022-12-10T03:39:23;22.70;46.60
46784;DHT22;32544;52.832;13.816;2022-12-10T03:40:24;22.70;46.60
46784;DHT22;32544;52.832;13.816;2022-12-10T03:41:25;22.70;46.50
46784;DHT22;32544;52.832;13.816;2022-12-10T03:42:25;22.80;46.60
46784;DHT22;32544;52.832;13.816;2022-12-10T03:43:26;22.70;46.60
46784;DHT22;32544;52.832;13.816;2022-12-10T03:44:30;22.80;46.60
46784;DHT22;32544;52.832;13.816;2022-12-10T03:45:31;22.80;46.60
46784;DHT22;32544;52.832;13.816;2022-12-10T03:46:32;22.70;46.60
46784;DHT22;32544;52.832;13.816;2022-12-10T03:47:33;22.80;46.60
46784;DHT22;32544;52.832;13.816;2022-12-10T03:48:33;22.70;46.60
46784;DHT22;32544;52.832;13.816;2022-12-10T03:49:34;22.70;46.50
46784;DHT22;32544;52.832;13.816;2022-12-10T03:50:35;22.70;46.60
46784;DHT22;32544;52.832;13.816;2022-12-10T03:51:35;22.70;46.60
46784;DHT22;32544;52.832;13.816;2022-12-10T03:52:36;22.70;46.60
46784;DHT22;32544;52.832;13.816;2022-12-10T03:53:36;22.70;46.60
46784;DHT22;32544;52.832;13.816;2022-12-10T03:54:37;22.70;46.50
46784;DHT22;32544;52.832;13.816;2022-12-10T03:55:38;22.80;46.60
46784;DHT22;32544;52.832;13.816;2022-12-10T03:56:40;22.70;46.50
46784;DHT22;32544;52.832;13.816;2022-12-10T03:57:40;22.80;46.60
46784;DHT22;32544;52.832;13.816;2022-12-10T03:58:41;22.80;46.60
46784;DHT22;32544;52.832;13.816;2022-12-10T03:59:42;22.80;46.50
46784;DHT22;32544;52.832;13.816;2022-12-10T04:00:42;22.80;46.60
46784;DHT22;32544;52.832;13.816;2022-12-10T04:01:44;22.80;46.50
46784;DHT22;32544;52.832;13.816;2022-12-10T04:02:45;22.80;46.60
46784;DHT22;32544;52.832;13.816;2022-12-10T04:03:45;22.80;46.50
46784;DHT22;32544;52.832;13.816;2022-12-10T04:04:46;22.80;46.50
46784;DHT22;32544;52.832;13.816;2022-12-10T04:05:46;22.80;46.50
46784;DHT22;32544;52.832;13.816;2022-12-10T04:06:47;22.80;46.50
46784;DHT22;32544;52.832;13.816;2022-12-10T04:07:48;22.80;46.50
46784;DHT22;32544;52.832;13.816;2022-12-10T04:08:48;22.80;46.50
46784;DHT22;32544;52.832;13.816;2022-12-10T04:09:49;22.80;46.50
46784;DHT22;32544;52.832;13.816;2022-12-10T04:10:49;22.80;46.50
46784;DHT22;32544;52.832;13.816;2022-12-10T04:11:54;22.80;46.50
46784;DHT22;32544;52.832;13.816;2022-12-10T04:12:54;22.80;46.50
46784;DHT22;32544;52.832;13.816;2022-12-10T04:14:18;22.80;46.50
46784;DHT22;32544;52.832;13.816;2022-12-10T04:15:38;22.80;46.60
46784;DHT22;32544;52.832;13.816;2022-12-10T04:16:57;22.80;46.50
46784;DHT22;32544;52.832;13.816;2022-12-10T04:17:58;22.80;46.60
46784;DHT22;32544;52.832;13.816;2022-12-10T04:19:07;22.80;46.60
46784;DHT22;32544;52.832;13.816;2022-12-10T04:20:08;22.80;46.60
46784;DHT22;32544;52.832;13.816;2022-12-10T04:21:32;22.70;46.60
46784;DHT22;32544;52.832;13.816;2022-12-10T04:22:52;22.70;46.50
46784;DHT22;32544;52.832;13.816;2022-12-10T04:24:12;22.70;46.50
46784;DHT22;32544;52.832;13.816;2022-12-10T04:25:31;22.70;46.60
46784;DHT22;32544;52.832;13.816;2022-12-10T04:26:50;22.70;46.70
46784;DHT22;32544;52.832;13.816;2022-12-10T04:27:53;22.70;46.60
46784;DHT22;32544;52.832;13.816;2022-12-10T04:28:54;22.70;46.60
46784;DHT22;32544;52.832;13.816;2022-12-10T04:29:55;22.70;46.70
46784;DHT22;32544;52.832;13.816;2022-12-10T04:30:56;22.70;46.70
46784;DHT22;32544;52.832;13.816;2022-12-10T04:31:57;22.70;46.70
46784;DHT22;32544;52.832;13.816;2022-12-10T04:32:57;22.70;46.70
46784;DHT22;32544;52.832;13.816;2022-12-10T04:33:58;22.70;46.70
46784;DHT22;32544;52.832;13.816;2022-12-10T04:34:59;22.70;46.70
46784;DHT22;32544;52.832;13.816;2022-12-10T04:35:59;22.70;46.70
46784;DHT22;32544;52.832;13.816;2022-12-10T04:37:00;22.70;46.70
46784;DHT22;32544;52.832;13.816;2022-12-10T04:38:01;22.70;46.70
46784;DHT22;32544;52.832;13.816;2022-12-10T04:39:02;22.70;46.70
46784;DHT22;32544;52.832;13.816;2022-12-10T04:40:03;22.70;46.70
46784;DHT22;32544;52.832;13.816;2022-12-10T04:41:03;22.70;46.70
46784;DHT22;32544;52.832;13.816;2022-12-10T04:42:15;22.70;46.70
46784;DHT22;32544;52.832;13.816;2022-12-10T04:43:16;22.70;46.80
46784;DHT22;32544;52.832;13.816;2022-12-10T04:44:17;22.70;46.70
46784;DHT22;32544;52.832;13.816;2022-12-10T04:45:18;22.70;46.80
46784;DHT22;32544;52.832;13.816;2022-12-10T04:46:18;22.80;46.80
46784;DHT22;32544;52.832;13.816;2022-12-10T04:47:19;22.70;46.80
46784;DHT22;32544;52.832;13.816;2022-12-10T04:48:19;22.70;46.90
46784;DHT22;32544;52.832;13.816;2022-12-10T04:49:20;22.70;46.80
46784;DHT22;32544;52.832;13.816;2022-12-10T04:50:21;22.70;46.90
46784;DHT22;32544;52.832;13.816;2022-12-10T04:51:23;22.70;46.90
46784;DHT22;32544;52.832;13.816;2022-12-10T04:52:24;22.70;47.10
46784;DHT22;32544;52.832;13.816;2022-12-10T04:53:24;22.70;47.00
46784;DHT22;32544;52.832;13.816;2022-12-10T04:54:25;22.70;47.00
46784;DHT22;32544;52.832;13.816;2022-12-10T04:55:27;22.70;47.00
46784;DHT22;32544;52.832;13.816;2022-12-10T04:56:28;22.70;47.00
46784;DHT22;32544;52.832;13.816;2022-12-10T04:57:29;22.70;47.00
46784;DHT22;32544;52.832;13.816;2022-12-10T04:58:29;22.70;47.00
46784;DHT22;32544;52.832;13.816;2022-12-10T04:59:31;22.70;47.00
46784;DHT22;32544;52.832;13.816;2022-12-10T05:00:31;22.70;47.00
46784;DHT22;32544;52.832;13.816;2022-12-10T05:01:32;22.60;47.00
46784;DHT22;32544;52.832;13.816;2022-12-10T05:02:33;22.60;47.00
46784;DHT22;32544;52.832;13.816;2022-12-10T05:03:34;22.60;47.00
46784;DHT22;32544;52.832;13.816;2022-12-10T05:04:34;22.60;47.00
46784;DHT22;32544;52.832;13.816;2022-12-10T05:05:35;22.70;47.10
46784;DHT22;32544;52.832;13.816;2022-12-10T05:06:36;22.60;47.00
46784;DHT22;32544;52.832;13.816;2022-12-10T05:07:36;22.60;47.00
46784;DHT22;32544;52.832;13.816;2022-12-10T05:08:38;22.60;47.00
46784;DHT22;32544;52.832;13.816;2022-12-10T05:09:39;22.60;47.10
46784;DHT22;32544;52.832;13.816;2022-12-10T05:10:40;22.60;47.10
46784;DHT22;32544;52.832;13.816;2022-12-10T05:11:40;22.70;47.10
46784;DHT22;32544;52.832;13.816;2022-12-10T05:12:43;22.60;47.10
46784;DHT22;32544;52.832;13.816;2022-12-10T05:13:44;22.60;47.10
46784;DHT22;32544;52.832;13.816;2022-12-10T05:14:45;22.60;47.10
46784;DHT22;32544;52.832;13.816;2022-12-10T05:15:46;22.60;47.10
46784;DHT22;32544;52.832;13.816;2022-12-10T05:16:48;22.60;47.10
46784;DHT22;32544;52.832;13.816;2022-12-10T05:17:50;22.60;47.10
46784;DHT22;32544;52.832;13.816;2022-12-10T05:18:50;22.60;47.10
46784;DHT22;32544;52.832;13.816;2022-12-10T05:19:51;22.60;47.10
46784;DHT22;32544;52.832;13.816;2022-12-10T05:20:52;22.60;47.10
46784;DHT22;32544;52.832;13.816;2022-12-10T05:21:52;22.60;47.10
46784;DHT22;32544;52.832;13.816;2022-12-10T05:23:11;22.60;47.10
46784;DHT22;32544;52.832;13.816;2022-12-10T05:24:30;22.60;47.10
46784;DHT22;32544;52.832;13.816;2022-12-10T05:25:31;22.60;47.10
46784;DHT22;32544;52.832;13.816;2022-12-10T05:26:51;22.60;47.20
46784;DHT22;32544;52.832;13.816;2022-12-10T05:27:52;22.60;47.00
46784;DHT22;32544;52.832;13.816;2022-12-10T05:28:53;22.60;47.00
46784;DHT22;32544;52.832;13.816;2022-12-10T05:29:54;22.70;47.00
46784;DHT22;32544;52.832;13.816;2022-12-10T05:30:55;22.60;47.00
46784;DHT22;32544;52.832;13.816;2022-12-10T05:31:55;22.70;47.00
46784;DHT22;32544;52.832;13.816;2022-12-10T05:32:56;22.70;47.00
46784;DHT22;32544;52.832;13.816;2022-12-10T05:33:57;22.70;47.00
46784;DHT22;32544;52.832;13.816;2022-12-10T05:34:58;22.60;47.00
46784;DHT22;32544;52.832;13.816;2022-12-10T05:36:00;22.60;47.00
46784;DHT22;32544;52.832;13.816;2022-12-10T05:37:01;22.60;46.90
46784;DHT22;32544;52.832;13.816;2022-12-10T05:38:01;22.60;46.90
46784;DHT22;32544;52.832;13.816;2022-12-10T05:39:02;22.70;47.00
46784;DHT22;32544;52.832;13.816;2022-12-10T05:40:03;22.70;47.00
46784;DHT22;32544;52.832;13.816;2022-12-10T05:41:05;22.70;47.00
46784;DHT22;32544;52.832;13.816;2022-12-10T05:42:06;22.70;47.00
46784;DHT22;32544;52.832;13.816;2022-12-10T05:43:06;22.70;46.90
46784;DHT22;32544;52.832;13.816;2022-12-10T05:44:08;22.70;46.90
46784;DHT22;32544;52.832;13.816;2022-12-10T05:45:09;22.70;46.90
46784;DHT22;32544;52.832;13.816;2022-12-10T05:46:12;22.70;46.90
46784;DHT22;32544;52.832;13.816;2022-12-10T05:47:12;22.70;46.90
46784;DHT22;32544;52.832;13.816;2022-12-10T05:48:14;22.70;46.90
46784;DHT22;32544;52.832;13.816;2022-12-10T05:49:15;22.70;46.80
46784;DHT22;32544;52.832;13.816;2022-12-10T05:50:15;22.70;46.90
46784;DHT22;32544;52.832;13.816;2022-12-10T05:51:23;22.70;46.80
46784;DHT22;32544;52.832;13.816;2022-12-10T05:52:24;22.70;46.80
46784;DHT22;32544;52.832;13.816;2022-12-10T05:53:25;22.70;46.80
46784;DHT22;32544;52.832;13.816;2022-12-10T05:54:25;22.70;46.80
46784;DHT22;32544;52.832;13.816;2022-12-10T05:55:26;22.70;46.80
46784;DHT22;32544;52.832;13.816;2022-12-10T05:56:28;22.70;46.70
46784;DHT22;32544;52.832;13.816;2022-12-10T05:57:28;22.70;46.80
46784;DHT22;32544;52.832;13.816;2022-12-10T05:58:29;22.70;46.80
46784;DHT22;32544;52.832;13.816;2022-12-10T05:59:30;22.70;46.70
46784;DHT22;32544;52.832;13.816;2022-12-10T06:00:31;22.70;46.70
46784;DHT22;32544;52.832;13.816;2022-12-10T06:01:32;22.70;46.70
46784;DHT22;32544;52.832;13.816;2022-12-10T06:02:34;22.80;46.80
46784;DHT22;32544;52.832;13.816;2022-12-10T06:03:35;22.80;46.80
46784;DHT22;32544;52.832;13.816;2022-12-10T06:04:36;22.70;46.70
46784;DHT22;32544;52.832;13.816;2022-12-10T06:05:38;22.70;46.70
46784;DHT22;32544;52.832;13.816;2022-12-10T06:06:39;22.70;46.70
46784;DHT22;32544;52.832;13.816;2022-12-10T06:07:40;22.70;46.70
46784;DHT22;32544;52.832;13.816;2022-12-10T06:08:41;22.70;47.30
46784;DHT22;32544;52.832;13.816;2022-12-10T06:09:42;22.70;46.70
46784;DHT22;32544;52.832;13.816;2022-12-10T06:10:42;22.70;46.70
46784;DHT22;32544;52.832;13.816;2022-12-10T06:11:43;22.70;46.70
46784;DHT22;32544;52.832;13.816;2022-12-10T06:12:44;22.70;46.70
46784;DHT22;32544;52.832;13.816;2022-12-10T06:13:44;22.70;46.70
46784;DHT22;32544;52.832;13.816;2022-12-10T06:14:45;22.70;46.70
46784;DHT22;32544;52.832;13.816;2022-12-10T06:15:46;22.70;46.80
46784;DHT22;32544;52.832;13.816;2022-12-10T06:16:47;22.70;47.40
46784;DHT22;32544;52.832;13.816;2022-12-10T06:17:47;22.70;46.90
46784;DHT22;32544;52.832;13.816;2022-12-10T06:18:48;22.70;46.80
46784;DHT22;32544;52.832;13.816;2022-12-10T06:19:50;22.70;46.80
46784;DHT22;32544;52.832;13.816;2022-12-10T06:20:50;22.70;46.80
46784;DHT22;32544;52.832;13.816;2022-12-10T06:21:51;22.70;46.80
46784;DHT22;32544;52.832;13.816;2022-12-10T06:22:52;22.70;46.80
46784;DHT22;32544;52.832;13.816;2022-12-10T06:23:52;22.70;46.80
46784;DHT22;32544;52.832;13.816;2022-12-10T06:24:53;22.70;46.90
46784;DHT22;32544;52.832;13.816;2022-12-10T06:25:53;22.70;46.80
46784;DHT22;32544;52.832;13.816;2022-12-10T06:26:54;22.70;46.80
46784;DHT22;32544;52.832;13.816;2022-12-10T06:27:55;22.70;46.90
46784;DHT22;32544;52.832;13.816;2022-12-10T06:28:55;22.70;46.90
46784;DHT22;32544;52.832;13.816;2022-12-10T06:29:56;22.70;46.90
46784;DHT22;32544;52.832;13.816;2022-12-10T06:30:58;22.70;47.00
46784;DHT22;32544;52.832;13.816;2022-12-10T06:31:58;22.70;47.00
46784;DHT22;32544;52.832;13.816;2022-12-10T06:32:59;22.60;47.00
46784;DHT22;32544;52.832;13.816;2022-12-10T06:34:00;22.60;47.00
46784;DHT22;32544;52.832;13.816;2022-12-10T06:35:01;22.60;47.10
46784;DHT22;32544;52.832;13.816;2022-12-10T06:36:05;22.60;47.10
46784;DHT22;32544;52.832;13.816;2022-12-10T06:37:06;22.60;47.00
46784;DHT22;32544;52.832;13.816;2022-12-10T06:38:07;22.60;47.10
46784;DHT22;32544;52.832;13.816;2022-12-10T06:39:07;22.60;47.10
46784;DHT22;32544;52.832;13.816;2022-12-10T06:40:08;22.60;47.10
46784;DHT22;32544;52.832;13.816;2022-12-10T06:41:10;22.60;47.10
46784;DHT22;32544;52.832;13.816;2022-12-10T06:42:10;22.60;47.10
46784;DHT22;32544;52.832;13.816;2022-12-10T06:43:11;22.60;47.10
46784;DHT22;32544;52.832;13.816;2022-12-10T06:44:12;22.60;47.20
46784;DHT22;32544;52.832;13.816;2022-12-10T06:45:12;22.60;47.20
46784;DHT22;32544;52.832;13.816;2022-12-10T06:46:17;22.60;47.20
46784;DHT22;32544;52.832;13.816;2022-12-10T06:47:18;22.60;47.20
46784;DHT22;32544;52.832;13.816;2022-12-10T06:48:19;22.60;47.20
46784;DHT22;32544;52.832;13.816;2022-12-10T06:49:20;22.60;47.20
46784;DHT22;32544;52.832;13.816;2022-12-10T06:50:20;22.60;47.20